createdAt,value
2022-07-29T00:02:53.000Z,39.44
2022-07-29T00:07:42.000Z,39.72
2022-07-29T00:12:36.000Z,39.67
2022-07-29T00:17:31.000Z,40.03
2022-07-29T00:22:26.000Z,39.81
2022-07-29T00:27:21.000Z,40.15
2022-07-29T00:32:16.000Z,40.14
2022-07-29T00:37:10.000Z,40.15
2022-07-29T00:42:05.000Z,39.59
2022-07-29T00:47:00.000Z,39.44
2022-07-29T00:51:55.000Z,39.49
2022-07-29T00:56:47.000Z,39.75
2022-07-29T01:01:43.000Z,39.51
2022-07-29T01:06:38.000Z,40.07
2022-07-29T01:11:32.000Z,40.62
2022-07-29T01:16:27.000Z,40.43
2022-07-29T01:21:21.000Z,40.83
2022-07-29T01:26:16.000Z,41.20
2022-07-29T01:31:11.000Z,42.04
2022-07-29T01:36:06.000Z,42.89
2022-07-29T01:41:00.000Z,43.90
2022-07-29T01:45:55.000Z,45.24
2022-07-29T01:50:49.000Z,46.11
2022-07-29T01:55:44.000Z,48.17
2022-07-29T02:00:39.000Z,49.23
2022-07-29T02:05:33.000Z,51.02
2022-07-29T02:10:28.000Z,51.75
2022-07-29T02:15:22.000Z,54.02
2022-07-29T02:20:17.000Z,54.75
2022-07-29T02:25:12.000Z,56.22
2022-07-29T02:30:06.000Z,57.00
2022-07-29T02:35:01.000Z,55.86
2022-07-29T02:39:55.000Z,58.81
2022-07-29T02:44:48.000Z,60.89
2022-07-29T02:49:43.000Z,61.51
2022-07-29T02:54:38.000Z,64.14
2022-07-29T02:59:33.000Z,64.69
2022-07-29T03:04:27.000Z,65.65
2022-07-29T03:09:22.000Z,66.60
2022-07-29T03:14:17.000Z,67.32
2022-07-29T03:19:12.000Z,68.42
2022-07-29T03:24:06.000Z,70.33
2022-07-29T03:29:01.000Z,70.68
2022-07-29T03:33:55.000Z,70.50
2022-07-29T03:38:47.000Z,71.69
2022-07-29T03:43:42.000Z,73.38
2022-07-29T03:48:37.000Z,73.74
2022-07-29T03:53:31.000Z,75.45
2022-07-29T03:58:26.000Z,75.97
2022-07-29T04:03:20.000Z,77.08
2022-07-29T04:08:15.000Z,77.20
2022-07-29T04:13:09.000Z,78.68
2022-07-29T04:18:04.000Z,78.60
2022-07-29T04:22:59.000Z,77.59
2022-07-29T04:27:53.000Z,78.28
2022-07-29T04:32:48.000Z,77.45
2022-07-29T04:37:42.000Z,78.41
2022-07-29T04:42:37.000Z,77.08
2022-07-29T04:47:32.000Z,78.25
2022-07-29T04:52:27.000Z,74.06
2022-07-29T04:57:23.000Z,70.71
2022-07-29T05:02:16.000Z,69.87
2022-07-29T05:07:11.000Z,69.83
2022-07-29T05:12:06.000Z,69.92
2022-07-29T05:17:01.000Z,68.58
2022-07-29T05:21:55.000Z,69.49
2022-07-29T05:26:50.000Z,70.92
2022-07-29T05:31:45.000Z,69.31
2022-07-29T05:36:40.000Z,70.01
2022-07-29T05:41:35.000Z,69.08
2022-07-29T05:46:30.000Z,69.57
2022-07-29T05:51:24.000Z,69.27
2022-07-29T05:56:18.000Z,71.50
2022-07-29T06:01:13.000Z,70.68
2022-07-29T06:06:08.000Z,71.48
2022-07-29T06:11:03.000Z,69.69
2022-07-29T06:15:57.000Z,69.04
2022-07-29T06:20:51.000Z,67.57
2022-07-29T06:25:46.000Z,66.56
2022-07-29T06:30:41.000Z,63.86
2022-07-29T06:35:36.000Z,64.53
2022-07-29T06:40:31.000Z,64.48
2022-07-29T06:45:26.000Z,66.34
2022-07-29T06:50:20.000Z,66.44
2022-07-29T06:55:15.000Z,67.37
2022-07-29T07:00:10.000Z,65.31
2022-07-29T07:05:04.000Z,64.66
2022-07-29T07:09:59.000Z,63.50
2022-07-29T07:14:53.000Z,61.80
2022-07-29T07:19:48.000Z,64.06
2022-07-29T07:24:46.000Z,64.38
2022-07-29T07:29:36.000Z,64.22
2022-07-29T07:34:31.000Z,61.24
2022-07-29T07:39:26.000Z,61.85
2022-07-29T07:44:20.000Z,61.11
2022-07-29T07:49:15.000Z,57.72
2022-07-29T07:54:10.000Z,54.24
2022-07-29T07:59:05.000Z,51.50
2022-07-29T08:04:01.000Z,49.93
2022-07-29T08:08:56.000Z,45.91
2022-07-29T08:13:51.000Z,45.79
2022-07-29T08:18:46.000Z,45.78
2022-07-29T08:23:41.000Z,45.60
2022-07-29T08:28:36.000Z,44.39
2022-07-29T08:33:31.000Z,43.00
2022-07-29T08:38:26.000Z,42.84
2022-07-29T08:43:21.000Z,46.57
2022-07-29T08:48:16.000Z,44.18
2022-07-29T08:53:10.000Z,45.05
2022-07-29T08:58:05.000Z,43.54
2022-07-29T09:03:00.000Z,41.11
2022-07-29T09:07:54.000Z,41.27
2022-07-29T09:12:49.000Z,41.91
2022-07-29T09:17:43.000Z,43.48
2022-07-29T09:22:37.000Z,42.46
2022-07-29T09:27:32.000Z,39.92
2022-07-29T09:37:21.000Z,38.89
2022-07-29T09:42:15.000Z,37.86
2022-07-29T09:47:09.000Z,37.69
2022-07-29T09:52:03.000Z,36.08
2022-07-29T09:56:58.000Z,35.38
2022-07-29T10:01:52.000Z,0.00
2022-07-29T10:06:47.000Z,30.77
2022-07-29T10:11:44.000Z,33.05
2022-07-29T10:16:39.000Z,30.43
2022-07-29T10:21:35.000Z,27.60
2022-07-29T10:26:31.000Z,31.31
2022-07-29T10:31:25.000Z,29.51
2022-07-29T10:36:20.000Z,27.17
2022-07-29T10:41:16.000Z,27.58
2022-07-29T10:46:12.000Z,26.80
2022-07-29T10:51:07.000Z,25.70
2022-07-29T10:56:01.000Z,28.06
2022-07-29T11:00:56.000Z,25.54
2022-07-29T11:05:50.000Z,26.30
2022-07-29T11:10:44.000Z,28.58
2022-07-29T11:15:39.000Z,26.89
2022-07-29T11:20:34.000Z,27.23
2022-07-29T11:25:29.000Z,25.67
2022-07-29T11:30:25.000Z,24.86
2022-07-29T11:35:19.000Z,24.54
2022-07-29T11:40:15.000Z,24.08
2022-07-29T11:45:10.000Z,23.64
2022-07-29T11:50:05.000Z,26.30
2022-07-29T11:54:59.000Z,25.86
2022-07-29T11:59:53.000Z,27.06
2022-07-29T12:04:47.000Z,26.17
2022-07-29T12:09:41.000Z,29.20
2022-07-29T12:14:35.000Z,29.47
2022-07-29T12:19:29.000Z,30.51
2022-07-29T12:24:23.000Z,30.66
2022-07-29T12:29:18.000Z,31.98
2022-07-29T12:34:10.000Z,30.32
2022-07-29T12:39:05.000Z,30.04
2022-07-29T12:44:00.000Z,31.82
2022-07-29T12:48:54.000Z,30.38
2022-07-29T12:53:49.000Z,32.23
2022-07-29T12:58:45.000Z,34.98
2022-07-29T13:03:37.000Z,33.09
2022-07-29T13:08:31.000Z,31.94
2022-07-29T13:13:27.000Z,29.34
2022-07-29T13:18:22.000Z,25.42
2022-07-29T13:23:18.000Z,26.43
2022-07-29T13:28:12.000Z,27.13
2022-07-29T13:33:07.000Z,27.25
2022-07-29T13:38:02.000Z,23.98
2022-07-29T13:42:55.000Z,26.96
2022-07-29T13:47:49.000Z,25.96
2022-07-29T13:52:43.000Z,28.23
2022-07-29T13:57:38.000Z,29.25
2022-07-29T14:02:31.000Z,28.82
2022-07-29T14:07:24.000Z,26.94
2022-07-29T14:12:19.000Z,25.58
2022-07-29T14:17:14.000Z,26.30
2022-07-29T14:22:09.000Z,24.88
2022-07-29T14:27:04.000Z,26.37
2022-07-29T14:31:58.000Z,26.44
2022-07-29T14:36:52.000Z,28.75
2022-07-29T14:41:46.000Z,30.64
2022-07-29T14:46:40.000Z,30.95
2022-07-29T14:51:34.000Z,31.61
2022-07-29T14:56:28.000Z,29.88
2022-07-29T15:01:23.000Z,28.54
2022-07-29T15:06:19.000Z,24.56
2022-07-29T15:11:15.000Z,23.04
2022-07-29T15:16:11.000Z,24.91
2022-07-29T15:21:06.000Z,23.98
2022-07-29T15:26:01.000Z,23.82
2022-07-29T15:30:56.000Z,24.97
2022-07-29T15:35:49.000Z,24.80
2022-07-29T15:40:44.000Z,23.80
2022-07-29T15:45:39.000Z,25.52
2022-07-29T15:50:34.000Z,23.83
2022-07-29T15:55:29.000Z,25.33
2022-07-29T16:00:23.000Z,24.87
2022-07-29T16:05:18.000Z,24.61
2022-07-29T16:10:13.000Z,25.41
2022-07-29T16:15:07.000Z,25.77
2022-07-29T16:20:02.000Z,24.87
2022-07-29T16:24:57.000Z,24.47
2022-07-29T16:29:51.000Z,25.74
2022-07-29T16:34:46.000Z,25.73
2022-07-29T16:39:40.000Z,24.50
2022-07-29T16:44:35.000Z,25.89
2022-07-29T16:49:29.000Z,25.79
2022-07-29T16:54:24.000Z,26.81
2022-07-29T16:59:19.000Z,25.61
2022-07-29T17:04:13.000Z,27.19
2022-07-29T17:09:07.000Z,28.97
2022-07-29T17:14:02.000Z,28.75
2022-07-29T17:18:56.000Z,29.60
2022-07-29T17:23:49.000Z,31.79
2022-07-29T17:28:43.000Z,31.42
2022-07-29T17:33:38.000Z,35.23
2022-07-29T17:38:32.000Z,37.04
2022-07-29T17:43:26.000Z,38.66
2022-07-29T17:48:21.000Z,39.78
2022-07-29T17:53:15.000Z,40.40
2022-07-29T17:58:09.000Z,41.89
2022-07-29T18:03:03.000Z,42.69
2022-07-29T18:07:57.000Z,42.34
2022-07-29T18:12:51.000Z,42.61
2022-07-29T18:17:45.000Z,41.32
2022-07-29T18:22:40.000Z,42.45
2022-07-29T18:27:34.000Z,43.22
2022-07-29T18:32:29.000Z,43.35
2022-07-29T18:37:23.000Z,42.92
2022-07-29T18:42:18.000Z,43.08
2022-07-29T18:47:12.000Z,43.74
2022-07-29T18:52:07.000Z,43.59
2022-07-29T18:57:01.000Z,44.04
2022-07-29T19:01:55.000Z,44.47
2022-07-29T19:06:49.000Z,44.57
2022-07-29T19:11:43.000Z,45.38
2022-07-29T19:16:37.000Z,45.61
2022-07-29T19:21:31.000Z,45.79
2022-07-29T19:26:26.000Z,46.34
2022-07-29T19:31:21.000Z,46.79
2022-07-29T19:36:15.000Z,47.72
2022-07-29T19:41:09.000Z,48.53
2022-07-29T19:46:04.000Z,49.30
2022-07-29T19:50:59.000Z,50.94
2022-07-29T19:55:51.000Z,52.22
2022-07-29T20:00:46.000Z,53.16
2022-07-29T20:05:40.000Z,52.33
2022-07-29T20:10:34.000Z,53.82
2022-07-29T20:15:28.000Z,54.76
2022-07-29T20:20:23.000Z,54.94
2022-07-29T20:25:17.000Z,54.30
2022-07-29T20:30:12.000Z,54.42
2022-07-29T20:35:06.000Z,55.76
2022-07-29T20:40:00.000Z,54.90
2022-07-29T20:44:52.000Z,54.44
2022-07-29T20:49:47.000Z,54.96
2022-07-29T20:54:41.000Z,55.08
2022-07-29T20:59:35.000Z,56.35
2022-07-29T21:04:30.000Z,56.00
2022-07-29T21:09:24.000Z,55.95
2022-07-29T21:14:19.000Z,57.25
2022-07-29T21:19:13.000Z,57.31
2022-07-29T21:24:08.000Z,57.15
2022-07-29T21:29:02.000Z,57.56
2022-07-29T21:33:57.000Z,59.59
2022-07-29T21:38:51.000Z,60.83
2022-07-29T21:43:45.000Z,60.36
2022-07-29T21:48:39.000Z,62.09
2022-07-29T21:53:33.000Z,63.93
2022-07-29T21:58:28.000Z,65.46
2022-07-29T22:03:23.000Z,67.21
2022-07-29T22:08:18.000Z,67.47
2022-07-29T22:13:10.000Z,67.79
2022-07-29T22:18:04.000Z,70.79
2022-07-29T22:22:59.000Z,71.51
2022-07-29T22:27:52.000Z,72.63
2022-07-29T22:32:47.000Z,73.04
2022-07-29T22:37:42.000Z,74.38
2022-07-29T22:42:36.000Z,75.48
2022-07-29T22:47:31.000Z,74.74
2022-07-29T22:52:26.000Z,76.11
2022-07-29T22:57:21.000Z,76.11
2022-07-29T23:02:15.000Z,77.60
2022-07-29T23:07:10.000Z,78.91
2022-07-29T23:12:05.000Z,79.18
2022-07-29T23:16:59.000Z,79.33
2022-07-29T23:21:53.000Z,80.50
2022-07-29T23:26:49.000Z,83.01
2022-07-29T23:31:43.000Z,80.47
2022-07-29T23:36:38.000Z,79.56
2022-07-29T23:41:33.000Z,79.21
2022-07-29T23:46:27.000Z,80.97
2022-07-29T23:51:22.000Z,83.19
2022-07-29T23:56:17.000Z,84.97
